Terminal Aerodrome Forecast
Issued by NWS Mt. Holly, NJ

Home | Current Version | Previous Version | Text Only | Print | Product List | Glossary On
Versions: 1 2 3 4 5 6 7 8 9 10 11 12 13 14 15 16 17 18 19 20 21 22 23 24 25
000
FTUS41 KPHI 290529
TAFACY
TAF
KACY 290529Z 2906/3006 21005KT 5SM BR SCT004
      TEMPO 2906/2909 BKN004
     FM290900 23008KT 5SM SHRA BR SCT015 OVC050
      TEMPO 2909/2912 3SM TSRA BKN015CB
     FM291500 25011KT P6SM SCT050 SCT250
     FM291700 24010G17KT P6SM SCT050 BKN150
     FM292100 24009KT P6SM SCT050 BKN150 PROB30 2923/3001 3SM TSRA
      BKN050CB
     FM300300 06004KT 5SM BR BKN015=

USA.gov is the U.S. government's official web portal to all federal, state and local government web resources and services.